createdAt,value
2019-03-09T00:00:00.918Z,5.43
2019-03-09T00:02:00.815Z,5.39
2019-03-09T00:04:00.974Z,5.38
2019-03-09T00:06:01.061Z,5.43
2019-03-09T00:08:01.039Z,5.47
2019-03-09T00:10:01.492Z,5.40
2019-03-09T00:12:01.281Z,5.37
2019-03-09T00:14:00.787Z,5.56
2019-03-09T00:16:00.895Z,5.48
2019-03-09T00:18:01.046Z,5.58
2019-03-09T00:20:01.141Z,5.59
2019-03-09T00:22:01.127Z,5.51
2019-03-09T00:24:01.055Z,5.64
2019-03-09T00:26:01.150Z,5.61
2019-03-09T00:28:01.575Z,5.65
2019-03-09T00:30:01.076Z,5.75
2019-03-09T00:32:01.105Z,5.69
2019-03-09T00:34:01.140Z,5.71
2019-03-09T00:36:01.426Z,5.66
2019-03-09T00:38:01.022Z,5.72
2019-03-09T00:40:01.093Z,5.58
2019-03-09T00:42:01.144Z,5.61
2019-03-09T00:44:01.061Z,5.56
2019-03-09T00:46:01.168Z,5.61
2019-03-09T00:48:01.077Z,5.73
2019-03-09T00:50:01.195Z,5.73
2019-03-09T00:52:00.900Z,5.64
2019-03-09T00:54:00.909Z,5.60
2019-03-09T00:56:01.025Z,5.59
2019-03-09T00:58:01.080Z,5.71
2019-03-09T01:00:01.043Z,5.71
2019-03-09T01:02:01.159Z,5.76
2019-03-09T01:04:01.173Z,5.72
2019-03-09T01:06:01.186Z,5.62
2019-03-09T01:08:01.282Z,5.64
2019-03-09T01:10:01.006Z,5.62
2019-03-09T01:12:01.220Z,5.70
2019-03-09T01:14:01.130Z,5.66
2019-03-09T01:16:01.199Z,5.60
2019-03-09T01:18:01.138Z,5.76
2019-03-09T01:20:01.122Z,5.65
2019-03-09T01:22:01.281Z,5.66
2019-03-09T01:24:01.105Z,5.76
2019-03-09T01:26:00.994Z,5.78
2019-03-09T01:28:01.217Z,5.72
2019-03-09T01:30:01.225Z,5.83
2019-03-09T01:32:01.227Z,5.85
2019-03-09T01:34:01.291Z,5.96
2019-03-09T01:36:01.359Z,5.92
2019-03-09T01:38:01.167Z,6.12
2019-03-09T01:40:01.386Z,6.17
2019-03-09T01:42:01.185Z,6.15
2019-03-09T01:44:00.987Z,6.21
2019-03-09T01:46:00.887Z,6.19
2019-03-09T01:48:01.092Z,6.18
2019-03-09T01:50:01.031Z,6.28
2019-03-09T01:52:01.253Z,6.28
2019-03-09T01:54:01.121Z,6.30
2019-03-09T01:56:01.168Z,6.25
2019-03-09T01:58:01.377Z,6.32
2019-03-09T02:00:01.033Z,6.35
2019-03-09T02:02:01.176Z,6.38
2019-03-09T02:04:01.073Z,6.42
2019-03-09T02:06:01.120Z,6.39
2019-03-09T02:08:01.131Z,6.44
2019-03-09T02:10:01.027Z,6.50
2019-03-09T02:12:01.158Z,6.51
2019-03-09T02:14:01.165Z,6.55
2019-03-09T02:16:01.047Z,6.45
2019-03-09T02:18:01.382Z,6.50
2019-03-09T02:20:01.430Z,6.54
2019-03-09T02:22:01.124Z,6.61
2019-03-09T02:24:01.228Z,6.58
2019-03-09T02:26:01.240Z,6.71
2019-03-09T02:28:01.457Z,6.62
2019-03-09T02:30:01.183Z,6.69
2019-03-09T02:32:01.595Z,6.70
2019-03-09T02:34:00.927Z,6.76
2019-03-09T02:36:01.191Z,6.62
2019-03-09T02:38:01.207Z,6.62
2019-03-09T02:40:01.213Z,6.57
2019-03-09T02:42:01.231Z,6.60
2019-03-09T02:44:01.039Z,6.68
2019-03-09T02:46:01.286Z,6.61
2019-03-09T02:48:01.470Z,6.63
2019-03-09T02:50:01.277Z,6.73
2019-03-09T02:52:01.244Z,6.74
2019-03-09T02:54:01.501Z,6.66
2019-03-09T02:56:01.317Z,6.65
2019-03-09T02:58:01.318Z,6.68
2019-03-09T03:00:01.774Z,6.70
2019-03-09T03:02:01.117Z,6.66
2019-03-09T03:04:01.214Z,6.66
2019-03-09T03:06:01.204Z,6.67
2019-03-09T03:08:01.278Z,6.76
2019-03-09T03:10:01.292Z,6.63
2019-03-09T03:12:01.300Z,6.72
2019-03-09T03:14:01.202Z,6.73
2019-03-09T03:16:01.330Z,6.65
2019-03-09T03:18:01.235Z,6.67
2019-03-09T03:20:01.552Z,6.49
2019-03-09T03:22:01.301Z,6.56
2019-03-09T03:24:01.162Z,6.55
2019-03-09T03:26:01.283Z,6.35
2019-03-09T03:28:01.295Z,6.35
2019-03-09T03:30:01.358Z,6.27
2019-03-09T03:32:01.323Z,6.20
2019-03-09T03:34:01.532Z,6.17
2019-03-09T03:36:01.114Z,6.21
2019-03-09T03:38:01.374Z,6.22
2019-03-09T03:40:01.258Z,6.21
2019-03-09T03:42:01.419Z,6.13
2019-03-09T03:44:01.585Z,6.11
2019-03-09T03:46:01.189Z,6.17
2019-03-09T03:48:01.349Z,6.08
2019-03-09T03:50:01.620Z,6.01
2019-03-09T03:52:01.346Z,6.04
2019-03-09T03:54:01.237Z,5.91
2019-03-09T03:56:00.986Z,6.07
2019-03-09T03:58:01.267Z,6.11
2019-03-09T04:00:01.376Z,6.19
2019-03-09T04:02:01.395Z,6.08
2019-03-09T04:04:01.826Z,6.14
2019-03-09T04:06:01.416Z,5.90
2019-03-09T04:08:01.314Z,6.01
2019-03-09T04:10:01.326Z,5.95
2019-03-09T04:12:01.339Z,6.01
2019-03-09T04:14:01.570Z,6.05
2019-03-09T04:16:01.163Z,6.09
2019-03-09T04:18:01.269Z,6.03
2019-03-09T04:20:01.295Z,6.13
2019-03-09T04:22:01.089Z,6.06
2019-03-09T04:24:01.325Z,6.16
2019-03-09T04:26:01.424Z,6.20
2019-03-09T04:28:01.577Z,6.14
2019-03-09T04:30:01.646Z,6.19
2019-03-09T04:32:01.389Z,6.17
2019-03-09T04:34:01.110Z,6.21
2019-03-09T04:36:01.231Z,6.21
2019-03-09T04:38:01.087Z,6.18
2019-03-09T04:40:01.120Z,6.16
2019-03-09T04:42:01.307Z,6.03
2019-03-09T04:44:01.254Z,5.99
2019-03-09T04:46:01.495Z,5.85
2019-03-09T04:48:01.356Z,5.98
2019-03-09T04:50:01.360Z,5.99
2019-03-09T04:52:01.424Z,5.87
2019-03-09T04:54:01.379Z,5.59
2019-03-09T04:56:01.292Z,5.91
2019-03-09T04:58:01.097Z,5.81
2019-03-09T05:00:01.314Z,5.89
2019-03-09T05:02:01.426Z,5.74
2019-03-09T05:04:01.162Z,5.69
2019-03-09T05:06:01.345Z,5.73
2019-03-09T05:08:01.339Z,5.71
2019-03-09T05:10:01.175Z,5.76
2019-03-09T05:12:01.489Z,5.71
2019-03-09T05:14:01.599Z,5.67
2019-03-09T05:16:01.391Z,5.85
2019-03-09T05:18:01.628Z,5.71
2019-03-09T05:20:01.431Z,5.76
2019-03-09T05:22:01.214Z,5.77
2019-03-09T05:24:01.326Z,5.72
2019-03-09T05:26:01.363Z,5.73
2019-03-09T05:28:01.237Z,5.89
2019-03-09T05:30:01.203Z,5.74
2019-03-09T05:32:01.194Z,5.73
2019-03-09T05:34:01.414Z,5.79
2019-03-09T05:36:01.522Z,5.75
2019-03-09T05:38:01.329Z,5.86
2019-03-09T05:40:01.443Z,5.86
2019-03-09T05:42:01.358Z,5.93
2019-03-09T05:44:01.232Z,6.02
2019-03-09T05:46:01.278Z,5.83
2019-03-09T05:48:01.210Z,5.86
2019-03-09T05:50:01.708Z,5.91
2019-03-09T05:52:01.451Z,5.94
2019-03-09T05:54:01.406Z,5.98
2019-03-09T05:56:01.343Z,6.02
2019-03-09T05:58:01.652Z,5.94
2019-03-09T06:00:01.460Z,5.94
2019-03-09T06:02:01.375Z,5.93
2019-03-09T06:04:01.586Z,5.90
2019-03-09T06:06:01.296Z,5.96
2019-03-09T06:08:01.282Z,5.85
2019-03-09T06:10:01.721Z,6.02
2019-03-09T06:12:01.528Z,5.95
2019-03-09T06:14:01.447Z,5.91
2019-03-09T06:16:01.455Z,5.90
2019-03-09T06:18:01.358Z,5.80
2019-03-09T06:20:01.473Z,5.96
2019-03-09T06:22:01.488Z,5.93
2019-03-09T06:24:01.316Z,5.92
2019-03-09T06:26:01.307Z,5.93
2019-03-09T06:28:01.579Z,5.98
2019-03-09T06:30:01.426Z,5.94
2019-03-09T06:32:01.324Z,5.99
2019-03-09T06:34:01.666Z,6.12
2019-03-09T06:36:01.472Z,5.95
2019-03-09T06:38:01.478Z,6.12
2019-03-09T06:40:01.801Z,6.07
2019-03-09T06:42:01.707Z,6.16
2019-03-09T06:44:01.332Z,6.18
2019-03-09T06:46:01.294Z,6.21
2019-03-09T06:48:01.437Z,6.21
2019-03-09T06:50:01.445Z,6.22
2019-03-09T06:52:01.553Z,6.04
2019-03-09T06:54:01.466Z,6.11
2019-03-09T06:56:01.485Z,6.14
2019-03-09T06:58:01.489Z,6.37
2019-03-09T07:00:01.422Z,6.24
2019-03-09T07:02:01.510Z,6.37
2019-03-09T07:04:01.319Z,6.47
2019-03-09T07:06:01.414Z,6.48
2019-03-09T07:08:01.546Z,6.45
2019-03-09T07:10:01.339Z,6.52
2019-03-09T07:12:01.314Z,6.47
2019-03-09T07:14:01.472Z,6.52
2019-03-09T07:16:01.337Z,6.56
2019-03-09T07:18:01.736Z,6.61
2019-03-09T07:20:11.979Z,6.61
2019-03-09T07:22:01.418Z,6.68
2019-03-09T07:24:01.746Z,6.65
2019-03-09T07:26:01.968Z,6.59
2019-03-09T07:28:01.338Z,6.73
2019-03-09T07:30:01.269Z,6.81
2019-03-09T07:32:01.378Z,6.91
2019-03-09T07:34:01.295Z,7.07
2019-03-09T07:36:01.609Z,7.26
2019-03-09T07:38:01.505Z,7.46
2019-03-09T07:40:01.636Z,7.66
2019-03-09T07:42:01.508Z,7.77
2019-03-09T07:44:01.653Z,7.72
2019-03-09T07:46:01.419Z,7.98
2019-03-09T07:48:01.469Z,8.02
2019-03-09T07:50:01.380Z,8.09
2019-03-09T07:52:01.395Z,8.01
2019-03-09T07:54:01.508Z,8.18
2019-03-09T07:56:01.722Z,8.42
2019-03-09T07:58:01.447Z,8.50
2019-03-09T08:00:01.660Z,8.31
2019-03-09T08:02:01.446Z,8.39
2019-03-09T08:04:01.458Z,8.40
2019-03-09T08:06:01.605Z,8.28
2019-03-09T08:08:01.614Z,8.21
2019-03-09T08:10:01.433Z,8.20
2019-03-09T08:12:01.319Z,8.16
2019-03-09T08:14:01.618Z,8.17
2019-03-09T08:16:01.450Z,8.36
2019-03-09T08:18:01.543Z,8.35
2019-03-09T08:20:01.567Z,8.56
2019-03-09T08:22:01.863Z,8.62
2019-03-09T08:24:01.662Z,8.66
2019-03-09T08:26:01.503Z,8.88
2019-03-09T08:28:01.605Z,9.01
2019-03-09T08:30:02.427Z,9.17
2019-03-09T08:32:01.647Z,9.19
2019-03-09T08:34:01.414Z,9.32
2019-03-09T08:36:01.436Z,9.33
2019-03-09T08:38:01.465Z,9.45
2019-03-09T08:40:01.785Z,9.43
2019-03-09T08:42:01.687Z,9.57
2019-03-09T08:44:01.596Z,9.49
2019-03-09T08:46:01.745Z,9.48
2019-03-09T08:48:01.721Z,9.39
2019-03-09T08:50:01.623Z,9.53
2019-03-09T08:52:01.670Z,9.40
2019-03-09T08:54:01.654Z,9.45
2019-03-09T08:56:01.650Z,9.44
2019-03-09T08:58:01.739Z,9.40
2019-03-09T09:00:01.960Z,9.40
2019-03-09T09:02:01.590Z,9.39
2019-03-09T09:04:01.615Z,9.38
2019-03-09T09:06:01.627Z,9.48
2019-03-09T09:08:03.622Z,9.45
2019-03-09T09:10:01.518Z,9.53
2019-03-09T09:12:01.658Z,9.39
2019-03-09T09:14:01.668Z,9.43
2019-03-09T09:16:01.678Z,9.43
2019-03-09T09:18:01.488Z,9.35
2019-03-09T09:20:01.909Z,9.49
2019-03-09T09:22:01.713Z,9.39
2019-03-09T09:24:01.519Z,9.50
2019-03-09T09:26:01.736Z,9.41
2019-03-09T09:28:01.537Z,9.51
2019-03-09T09:30:01.559Z,9.27
2019-03-09T09:32:01.577Z,9.32
2019-03-09T09:34:01.818Z,9.30
2019-03-09T09:36:01.690Z,9.30
2019-03-09T09:38:01.704Z,9.25
2019-03-09T09:40:01.544Z,9.33
2019-03-09T09:42:01.615Z,9.41
2019-03-09T09:44:01.739Z,9.50
2019-03-09T09:46:02.061Z,9.49
2019-03-09T09:48:01.875Z,9.64
2019-03-09T09:50:01.532Z,9.75
2019-03-09T09:52:01.686Z,9.76
2019-03-09T09:54:01.698Z,9.83
2019-03-09T09:56:01.705Z,9.78
2019-03-09T09:58:01.578Z,9.81
2019-03-09T10:00:01.736Z,9.89
2019-03-09T10:02:01.762Z,9.93
2019-03-09T10:04:01.414Z,9.97
2019-03-09T10:06:01.562Z,9.97
2019-03-09T10:08:01.776Z,10.10
2019-03-09T10:10:01.614Z,10.07
2019-03-09T10:12:01.721Z,10.13
2019-03-09T10:14:01.605Z,10.15
2019-03-09T10:16:01.717Z,10.42
2019-03-09T10:18:01.634Z,10.30
2019-03-09T10:20:01.575Z,10.32
2019-03-09T10:22:01.855Z,10.46
2019-03-09T10:24:01.718Z,10.59
2019-03-09T10:26:01.778Z,10.55
2019-03-09T10:28:01.652Z,10.70
2019-03-09T10:30:01.721Z,10.59
2019-03-09T10:32:01.606Z,10.60
2019-03-09T10:34:01.646Z,10.52
2019-03-09T10:36:01.631Z,10.55
2019-03-09T10:38:01.853Z,10.59
2019-03-09T10:40:01.655Z,10.56
2019-03-09T10:42:01.612Z,10.47
2019-03-09T10:44:01.683Z,10.51
2019-03-09T10:46:01.677Z,10.51
2019-03-09T10:48:01.696Z,10.53
2019-03-09T10:50:01.833Z,10.55
2019-03-09T10:52:01.722Z,10.48
2019-03-09T10:54:01.943Z,10.56
2019-03-09T10:56:01.904Z,10.59
2019-03-09T10:58:01.862Z,10.53
2019-03-09T11:00:01.800Z,10.50
2019-03-09T11:02:01.783Z,10.58
2019-03-09T11:04:01.695Z,10.63
2019-03-09T11:06:01.697Z,10.48
2019-03-09T11:08:01.709Z,10.56
2019-03-09T11:10:01.833Z,10.49
2019-03-09T11:12:01.877Z,10.65
2019-03-09T11:14:01.759Z,10.63
2019-03-09T11:16:01.692Z,10.70
2019-03-09T11:18:01.765Z,10.69
2019-03-09T11:20:01.898Z,10.76
2019-03-09T11:22:01.942Z,10.77
2019-03-09T11:24:01.829Z,10.94
2019-03-09T11:26:01.619Z,11.02
2019-03-09T11:28:01.942Z,10.99
2019-03-09T11:30:01.764Z,11.06
2019-03-09T11:32:01.751Z,11.22
2019-03-09T11:34:01.663Z,11.11
2019-03-09T11:36:01.827Z,11.05
2019-03-09T11:38:01.678Z,11.03
2019-03-09T11:40:01.753Z,10.98
2019-03-09T11:42:02.012Z,10.99
2019-03-09T11:44:01.924Z,10.88
2019-03-09T11:46:02.243Z,10.79
2019-03-09T11:48:01.696Z,10.87
2019-03-09T11:50:01.753Z,10.80
2019-03-09T11:52:01.978Z,10.80
2019-03-09T11:54:01.786Z,10.77
2019-03-09T11:56:01.796Z,10.72
2019-03-09T11:58:01.798Z,10.75
2019-03-09T12:00:01.771Z,10.77
2019-03-09T12:02:01.860Z,10.80
2019-03-09T12:04:01.624Z,10.74
2019-03-09T12:06:01.785Z,10.79
2019-03-09T12:08:01.870Z,10.75
2019-03-09T12:10:01.975Z,10.70
2019-03-09T12:12:01.880Z,10.80
2019-03-09T12:14:01.895Z,10.73
2019-03-09T12:16:01.671Z,10.86
2019-03-09T12:18:01.811Z,10.75
2019-03-09T12:20:01.935Z,10.83
2019-03-09T12:22:01.841Z,10.72
2019-03-09T12:24:01.856Z,10.63
2019-03-09T12:26:01.982Z,10.62
2019-03-09T12:28:01.665Z,10.56
2019-03-09T12:30:03.898Z,10.57
2019-03-09T12:32:01.898Z,10.65
2019-03-09T12:34:01.901Z,10.48
2019-03-09T12:36:01.807Z,10.43
2019-03-09T12:38:01.810Z,10.54
2019-03-09T12:40:02.160Z,10.48
2019-03-09T12:42:02.154Z,10.48
2019-03-09T12:44:01.968Z,10.48
2019-03-09T12:46:01.845Z,10.45
2019-03-09T12:48:01.897Z,10.45
2019-03-09T12:50:01.893Z,10.51
2019-03-09T12:52:01.886Z,10.55
2019-03-09T12:54:01.924Z,10.60
2019-03-09T12:56:01.899Z,10.60
2019-03-09T12:58:01.917Z,10.73
2019-03-09T13:00:01.907Z,10.85
2019-03-09T13:02:01.913Z,10.94
2019-03-09T13:04:01.936Z,11.05
2019-03-09T13:06:02.090Z,11.17
2019-03-09T13:08:01.896Z,11.32
2019-03-09T13:10:01.911Z,11.37
2019-03-09T13:12:02.255Z,11.45
2019-03-09T13:14:01.879Z,11.48
2019-03-09T13:16:01.953Z,11.58
2019-03-09T13:18:02.370Z,11.53
2019-03-09T13:20:01.761Z,11.84
2019-03-09T13:22:01.981Z,11.93
2019-03-09T13:24:01.903Z,12.09
2019-03-09T13:26:01.892Z,12.08
2019-03-09T13:28:01.945Z,12.21
2019-03-09T13:30:01.965Z,12.23
2019-03-09T13:32:02.041Z,12.15
2019-03-09T13:34:01.886Z,11.97
2019-03-09T13:36:02.099Z,11.90
2019-03-09T13:38:01.970Z,11.65
2019-03-09T13:40:02.013Z,11.45
2019-03-09T13:42:01.921Z,11.40
2019-03-09T13:44:01.899Z,11.29
2019-03-09T13:46:01.991Z,11.07
2019-03-09T13:48:02.037Z,11.00
2019-03-09T13:50:01.678Z,11.02
2019-03-09T13:52:01.740Z,11.00
2019-03-09T13:54:02.074Z,11.28
2019-03-09T13:56:02.183Z,11.26
2019-03-09T13:58:01.994Z,11.41
2019-03-09T14:00:02.010Z,11.35
2019-03-09T14:02:02.036Z,11.39
2019-03-09T14:04:01.812Z,11.38
2019-03-09T14:06:02.033Z,11.32
2019-03-09T14:08:02.044Z,11.26
2019-03-09T14:10:01.970Z,11.13
2019-03-09T14:12:01.960Z,11.02
2019-03-09T14:14:02.387Z,10.94
2019-03-09T14:16:01.767Z,10.80
2019-03-09T14:18:02.001Z,10.73
2019-03-09T14:20:01.913Z,10.65
2019-03-09T14:22:01.953Z,10.68
2019-03-09T14:24:01.952Z,10.63
2019-03-09T14:26:02.002Z,10.73
2019-03-09T14:28:01.998Z,10.62
2019-03-09T14:30:01.804Z,10.44
2019-03-09T14:32:01.935Z,10.54
2019-03-09T14:34:01.740Z,10.42
2019-03-09T14:36:01.793Z,10.39
2019-03-09T14:38:02.112Z,10.25
2019-03-09T14:40:02.035Z,10.08
2019-03-09T14:42:01.979Z,10.16
2019-03-09T14:44:01.977Z,10.22
2019-03-09T14:46:01.721Z,10.07
2019-03-09T14:48:01.979Z,10.04
2019-03-09T14:50:02.287Z,9.97
2019-03-09T14:52:02.298Z,9.95
2019-03-09T14:54:01.911Z,10.03
2019-03-09T14:56:02.123Z,10.16
2019-03-09T14:58:02.032Z,10.07
2019-03-09T15:00:02.139Z,10.20
2019-03-09T15:02:02.071Z,10.15
2019-03-09T15:04:02.133Z,10.08
2019-03-09T15:06:02.107Z,10.03
2019-03-09T15:08:01.787Z,10.05
2019-03-09T15:10:01.958Z,10.03
2019-03-09T15:12:02.223Z,10.00
2019-03-09T15:14:02.043Z,10.11
2019-03-09T15:16:01.918Z,10.04
2019-03-09T15:18:02.349Z,10.06
2019-03-09T15:20:02.160Z,10.02
2019-03-09T15:22:02.080Z,9.96
2019-03-09T15:24:01.964Z,9.99
2019-03-09T15:26:02.088Z,9.85
2019-03-09T15:28:02.001Z,9.94
2019-03-09T15:30:02.528Z,9.90
2019-03-09T15:32:02.127Z,9.91
2019-03-09T15:34:01.877Z,10.05
2019-03-09T15:36:02.152Z,10.10
2019-03-09T15:38:02.062Z,10.12
2019-03-09T15:40:02.448Z,10.13
2019-03-09T15:42:01.993Z,10.08
2019-03-09T15:44:02.012Z,10.05
2019-03-09T15:46:02.107Z,9.95
2019-03-09T15:48:02.223Z,10.02
2019-03-09T15:50:02.022Z,10.00
2019-03-09T15:52:02.149Z,10.10
2019-03-09T15:54:02.563Z,10.14
2019-03-09T15:56:02.167Z,10.27
2019-03-09T15:58:01.867Z,10.30
2019-03-09T16:00:02.112Z,10.32
2019-03-09T16:02:02.504Z,10.45
2019-03-09T16:04:02.168Z,10.39
2019-03-09T16:06:02.634Z,10.56
2019-03-09T16:08:02.545Z,10.55
2019-03-09T16:10:02.141Z,10.59
2019-03-09T16:12:02.099Z,10.69
2019-03-09T16:14:02.079Z,10.78
2019-03-09T16:16:01.843Z,10.79
2019-03-09T16:18:02.605Z,10.89
2019-03-09T16:20:02.529Z,11.02
2019-03-09T16:22:02.216Z,11.08
2019-03-09T16:24:02.636Z,11.17
2019-03-09T16:26:02.604Z,11.14
2019-03-09T16:28:02.461Z,11.20
2019-03-09T16:30:02.188Z,11.29
2019-03-09T16:32:02.484Z,11.15
2019-03-09T16:34:02.593Z,11.34
2019-03-09T16:36:01.990Z,11.34
2019-03-09T16:38:02.520Z,11.22
2019-03-09T16:40:02.576Z,11.26
2019-03-09T16:42:02.535Z,11.18
2019-03-09T16:44:02.548Z,11.24
2019-03-09T16:46:02.148Z,11.15
2019-03-09T16:48:02.569Z,11.14
2019-03-09T16:50:02.373Z,11.05
2019-03-09T16:52:01.982Z,11.00
2019-03-09T16:54:02.079Z,11.09
2019-03-09T16:56:02.141Z,10.95
2019-03-09T16:58:02.131Z,10.98
2019-03-09T17:00:02.128Z,11.05
2019-03-09T17:02:02.148Z,10.85
2019-03-09T17:04:02.559Z,11.00
2019-03-09T17:06:02.109Z,10.88
2019-03-09T17:08:02.489Z,10.89
2019-03-09T17:10:02.598Z,10.84
2019-03-09T17:12:02.609Z,10.85
2019-03-09T17:14:02.723Z,10.77
2019-03-09T17:16:02.395Z,10.74
2019-03-09T17:18:02.434Z,10.81
2019-03-09T17:20:02.346Z,10.82
2019-03-09T17:22:02.254Z,10.70
2019-03-09T17:24:02.583Z,10.71
2019-03-09T17:26:02.180Z,10.79
2019-03-09T17:28:02.561Z,10.62
2019-03-09T17:30:02.304Z,10.67
2019-03-09T17:32:02.617Z,10.70
2019-03-09T17:34:02.398Z,10.65
2019-03-09T17:36:02.055Z,10.85
2019-03-09T17:38:02.346Z,10.73
2019-03-09T17:40:02.358Z,10.72
2019-03-09T17:42:02.496Z,10.74
2019-03-09T17:44:02.290Z,10.68
2019-03-09T17:46:03.010Z,10.71
2019-03-09T17:48:02.206Z,10.65
2019-03-09T17:50:02.118Z,10.71
2019-03-09T17:52:02.230Z,10.69
2019-03-09T17:54:02.243Z,10.68
2019-03-09T17:56:02.452Z,10.55
2019-03-09T17:58:02.037Z,10.56
2019-03-09T18:00:02.296Z,10.52
2019-03-09T18:02:02.490Z,10.65
2019-03-09T18:04:02.409Z,10.65
2019-03-09T18:06:02.208Z,10.73
2019-03-09T18:08:02.420Z,10.72
2019-03-09T18:10:02.187Z,10.71
2019-03-09T18:12:02.650Z,10.74
2019-03-09T18:14:07.054Z,10.77
2019-03-09T18:16:02.054Z,10.72
2019-03-09T18:18:02.279Z,10.31
2019-03-09T18:20:02.165Z,9.84
2019-03-09T18:22:02.704Z,9.36
2019-03-09T18:24:02.511Z,8.80
2019-03-09T18:26:02.232Z,8.53
2019-03-09T18:28:02.397Z,8.21
2019-03-09T18:30:02.347Z,7.83
2019-03-09T18:32:02.260Z,7.77
2019-03-09T18:34:02.264Z,7.64
2019-03-09T18:36:02.796Z,7.53
2019-03-09T18:38:02.410Z,7.44
2019-03-09T18:40:02.354Z,7.45
2019-03-09T18:42:02.204Z,7.56
2019-03-09T18:44:02.530Z,7.34
2019-03-09T18:46:02.541Z,7.17
2019-03-09T18:48:02.865Z,6.95
2019-03-09T18:50:02.465Z,6.87
2019-03-09T18:52:02.248Z,6.88
2019-03-09T18:54:02.488Z,6.88
2019-03-09T18:56:02.437Z,6.93
2019-03-09T18:58:02.506Z,6.87
2019-03-09T19:00:02.539Z,6.87
2019-03-09T19:02:02.391Z,6.97
2019-03-09T19:04:03.061Z,7.02
2019-03-09T19:06:02.655Z,7.08
2019-03-09T19:08:02.533Z,7.12
2019-03-09T19:10:02.325Z,7.12
2019-03-09T19:12:02.601Z,7.13
2019-03-09T19:14:02.600Z,6.99
2019-03-09T19:16:02.528Z,7.11
2019-03-09T19:18:02.411Z,7.00
2019-03-09T19:20:02.540Z,6.92
2019-03-09T19:22:02.542Z,6.79
2019-03-09T19:24:02.362Z,6.80
2019-03-09T19:26:02.315Z,6.67
2019-03-09T19:28:02.579Z,6.62
2019-03-09T19:30:02.597Z,6.51
2019-03-09T19:32:02.404Z,6.59
2019-03-09T19:34:02.124Z,6.46
2019-03-09T19:36:02.521Z,6.45
2019-03-09T19:38:02.237Z,6.49
2019-03-09T19:40:02.338Z,6.46
2019-03-09T19:42:02.557Z,6.60
2019-03-09T19:44:05.205Z,6.67
2019-03-09T19:46:02.689Z,6.67
2019-03-09T19:48:02.596Z,6.59
2019-03-09T19:50:02.618Z,6.51
2019-03-09T19:52:02.399Z,6.51
2019-03-09T19:54:02.636Z,6.52
2019-03-09T19:56:02.234Z,6.38
2019-03-09T19:58:02.755Z,6.33
2019-03-09T20:00:02.187Z,6.29
2019-03-09T20:02:02.432Z,6.28
2019-03-09T20:04:02.299Z,6.33
2019-03-09T20:06:02.707Z,6.30
2019-03-09T20:08:02.349Z,6.41
2019-03-09T20:10:02.422Z,6.45
2019-03-09T20:12:02.560Z,6.45
2019-03-09T20:14:02.455Z,6.40
2019-03-09T20:16:02.608Z,6.42
2019-03-09T20:18:02.768Z,6.39
2019-03-09T20:20:02.589Z,6.43
2019-03-09T20:22:02.280Z,6.37
2019-03-09T20:24:02.203Z,6.34
2019-03-09T20:26:02.558Z,6.36
2019-03-09T20:28:02.414Z,6.33
2019-03-09T20:30:05.413Z,6.30
2019-03-09T20:32:02.442Z,6.30
2019-03-09T20:34:02.654Z,6.32
2019-03-09T20:36:02.777Z,6.26
2019-03-09T20:38:02.431Z,6.30
2019-03-09T20:40:02.691Z,6.31
2019-03-09T20:42:02.602Z,6.19
2019-03-09T20:44:02.307Z,6.23
2019-03-09T20:46:02.730Z,6.17
2019-03-09T20:48:02.569Z,6.17
2019-03-09T20:50:02.548Z,6.28
2019-03-09T20:52:02.432Z,6.29
2019-03-09T20:54:02.644Z,6.25
2019-03-09T20:56:02.276Z,6.31
2019-03-09T20:58:02.391Z,6.34
2019-03-09T21:00:02.410Z,6.28
2019-03-09T21:02:02.318Z,6.31
2019-03-09T21:04:02.444Z,6.38
2019-03-09T21:06:02.335Z,6.31
2019-03-09T21:08:02.342Z,6.25
2019-03-09T21:10:02.558Z,6.39
2019-03-09T21:12:02.474Z,6.40
2019-03-09T21:14:02.416Z,6.41
2019-03-09T21:16:02.633Z,6.38
2019-03-09T21:18:02.717Z,6.46
2019-03-09T21:20:02.426Z,6.46
2019-03-09T21:22:02.331Z,6.60
2019-03-09T21:24:02.343Z,6.50
2019-03-09T21:26:02.552Z,6.50
2019-03-09T21:28:02.563Z,6.54
2019-03-09T21:30:02.583Z,6.41
2019-03-09T21:32:02.379Z,6.52
2019-03-09T21:34:02.319Z,6.69
2019-03-09T21:36:02.324Z,6.68
2019-03-09T21:38:02.332Z,6.52
2019-03-09T21:40:02.432Z,6.49
2019-03-09T21:42:02.333Z,6.57
2019-03-09T21:44:02.460Z,6.51
2019-03-09T21:46:02.413Z,6.55
2019-03-09T21:48:02.415Z,6.56
2019-03-09T21:50:02.385Z,6.60
2019-03-09T21:52:02.508Z,6.64
2019-03-09T21:54:02.614Z,6.77
2019-03-09T21:56:02.528Z,6.70
2019-03-09T21:58:02.659Z,6.71
2019-03-09T22:00:02.552Z,6.79
2019-03-09T22:02:02.447Z,6.81
2019-03-09T22:04:02.251Z,6.81
2019-03-09T22:06:06.158Z,6.93
2019-03-09T22:08:02.472Z,6.85
2019-03-09T22:10:02.504Z,6.91
2019-03-09T22:12:02.620Z,6.87
2019-03-09T22:14:02.421Z,6.91
2019-03-09T22:16:02.322Z,6.78
2019-03-09T22:18:02.568Z,6.84
2019-03-09T22:20:02.558Z,6.84
2019-03-09T22:22:02.409Z,6.78
2019-03-09T22:24:02.492Z,6.81
2019-03-09T22:26:02.371Z,6.86
2019-03-09T22:28:02.529Z,6.90
2019-03-09T22:30:02.514Z,6.96
2019-03-09T22:32:02.526Z,6.98
2019-03-09T22:34:02.471Z,7.12
2019-03-09T22:36:02.555Z,7.00
2019-03-09T22:38:02.497Z,6.93
2019-03-09T22:40:02.793Z,6.89
2019-03-09T22:42:02.585Z,6.88
2019-03-09T22:44:02.471Z,6.87
2019-03-09T22:46:02.606Z,6.85
2019-03-09T22:48:02.531Z,6.72
2019-03-09T22:50:02.430Z,6.68
2019-03-09T22:52:02.751Z,6.70
2019-03-09T22:54:02.565Z,6.82
2019-03-09T22:56:02.582Z,6.60
2019-03-09T22:58:02.676Z,6.54
2019-03-09T23:00:02.485Z,6.60
2019-03-09T23:02:02.501Z,6.58
2019-03-09T23:04:02.307Z,6.67
2019-03-09T23:06:02.528Z,6.73
2019-03-09T23:08:02.541Z,6.68
2019-03-09T23:10:02.548Z,6.73
2019-03-09T23:12:02.761Z,6.64
2019-03-09T23:14:02.484Z,6.74
2019-03-09T23:16:02.378Z,6.67
2019-03-09T23:18:02.590Z,6.67
2019-03-09T23:20:02.612Z,6.68
2019-03-09T23:22:02.612Z,6.76
2019-03-09T23:24:02.404Z,6.55
2019-03-09T23:26:02.632Z,6.56
2019-03-09T23:28:02.526Z,6.58
2019-03-09T23:30:02.768Z,6.62
2019-03-09T23:32:02.573Z,6.53
2019-03-09T23:34:02.542Z,6.53
2019-03-09T23:36:02.596Z,6.58
2019-03-09T23:38:02.612Z,6.56
2019-03-09T23:40:02.619Z,6.46
2019-03-09T23:42:02.569Z,6.45
2019-03-09T23:44:02.688Z,6.39
2019-03-09T23:46:02.702Z,6.42
2019-03-09T23:48:02.558Z,6.39
2019-03-09T23:50:02.481Z,6.30
2019-03-09T23:52:02.532Z,6.34
2019-03-09T23:54:02.557Z,6.28
2019-03-09T23:56:02.618Z,6.21
2019-03-09T23:58:02.646Z,6.15
